sensor_id;sensor_type;location;lat;lon;timestamp;P1;durP1;ratioP1;P2;durP2;ratioP2
29516;SDS011;40993;50.594;8.664;2023-09-12T00:00:47;26.65;;;15.00;;
29516;SDS011;40993;50.594;8.664;2023-09-12T00:03:18;23.77;;;15.50;;
29516;SDS011;40993;50.594;8.664;2023-09-12T00:05:50;25.08;;;14.55;;
29516;SDS011;40993;50.594;8.664;2023-09-12T00:08:18;25.13;;;15.13;;
29516;SDS011;40993;50.594;8.664;2023-09-12T00:10:46;24.92;;;15.52;;
29516;SDS011;40993;50.594;8.664;2023-09-12T00:13:14;24.10;;;14.60;;
29516;SDS011;40993;50.594;8.664;2023-09-12T00:15:41;27.70;;;16.10;;
29516;SDS011;40993;50.594;8.664;2023-09-12T00:18:09;21.42;;;14.98;;
29516;SDS011;40993;50.594;8.664;2023-09-12T00:20:36;25.35;;;14.82;;
29516;SDS011;40993;50.594;8.664;2023-09-12T00:23:04;26.10;;;14.90;;
29516;SDS011;40993;50.594;8.664;2023-09-12T00:25:31;25.98;;;14.90;;
29516;SDS011;40993;50.594;8.664;2023-09-12T00:28:00;25.38;;;15.70;;
29516;SDS011;40993;50.594;8.664;2023-09-12T00:30:29;24.00;;;15.48;;
29516;SDS011;40993;50.594;8.664;2023-09-12T00:32:56;32.10;;;15.90;;
29516;SDS011;40993;50.594;8.664;2023-09-12T00:35:24;27.02;;;16.00;;
29516;SDS011;40993;50.594;8.664;2023-09-12T00:37:51;25.00;;;15.05;;
29516;SDS011;40993;50.594;8.664;2023-09-12T00:40:19;26.95;;;14.80;;
29516;SDS011;40993;50.594;8.664;2023-09-12T00:42:46;23.42;;;15.73;;
29516;SDS011;40993;50.594;8.664;2023-09-12T00:45:15;23.33;;;15.45;;
29516;SDS011;40993;50.594;8.664;2023-09-12T00:47:43;29.95;;;15.80;;
29516;SDS011;40993;50.594;8.664;2023-09-12T00:50:10;24.23;;;15.27;;
29516;SDS011;40993;50.594;8.664;2023-09-12T00:52:38;24.40;;;15.10;;
29516;SDS011;40993;50.594;8.664;2023-09-12T00:55:06;23.17;;;15.40;;
29516;SDS011;40993;50.594;8.664;2023-09-12T00:57:33;25.48;;;15.77;;
29516;SDS011;40993;50.594;8.664;2023-09-12T01:00:02;28.42;;;15.18;;
29516;SDS011;40993;50.594;8.664;2023-09-12T01:02:38;24.80;;;14.25;;
29516;SDS011;40993;50.594;8.664;2023-09-12T01:05:07;26.58;;;15.35;;
29516;SDS011;40993;50.594;8.664;2023-09-12T01:07:35;22.98;;;14.85;;
29516;SDS011;40993;50.594;8.664;2023-09-12T01:10:03;20.58;;;14.57;;
29516;SDS011;40993;50.594;8.664;2023-09-12T01:12:31;30.77;;;15.07;;
29516;SDS011;40993;50.594;8.664;2023-09-12T01:14:59;24.17;;;15.25;;
29516;SDS011;40993;50.594;8.664;2023-09-12T01:17:26;22.08;;;13.80;;
29516;SDS011;40993;50.594;8.664;2023-09-12T01:19:55;27.00;;;15.20;;
29516;SDS011;40993;50.594;8.664;2023-09-12T01:22:37;22.00;;;14.70;;
29516;SDS011;40993;50.594;8.664;2023-09-12T01:25:21;19.33;;;14.27;;
29516;SDS011;40993;50.594;8.664;2023-09-12T01:28:02;26.55;;;15.38;;
29516;SDS011;40993;50.594;8.664;2023-09-12T01:30:30;20.83;;;14.38;;
29516;SDS011;40993;50.594;8.664;2023-09-12T01:32:59;25.65;;;14.63;;
29516;SDS011;40993;50.594;8.664;2023-09-12T01:35:26;20.75;;;15.07;;
29516;SDS011;40993;50.594;8.664;2023-09-12T01:37:54;22.52;;;15.15;;
29516;SDS011;40993;50.594;8.664;2023-09-12T01:40:24;21.70;;;14.80;;
29516;SDS011;40993;50.594;8.664;2023-09-12T01:42:56;22.73;;;14.88;;
29516;SDS011;40993;50.594;8.664;2023-09-12T01:45:26;22.35;;;14.70;;
29516;SDS011;40993;50.594;8.664;2023-09-12T01:47:54;20.58;;;14.48;;
29516;SDS011;40993;50.594;8.664;2023-09-12T01:50:21;21.50;;;15.00;;
29516;SDS011;40993;50.594;8.664;2023-09-12T01:52:49;23.10;;;15.20;;
29516;SDS011;40993;50.594;8.664;2023-09-12T01:55:17;23.52;;;15.50;;
29516;SDS011;40993;50.594;8.664;2023-09-12T01:57:45;21.65;;;15.00;;
29516;SDS011;40993;50.594;8.664;2023-09-12T02:00:13;23.48;;;14.73;;
29516;SDS011;40993;50.594;8.664;2023-09-12T02:02:42;20.02;;;14.82;;
29516;SDS011;40993;50.594;8.664;2023-09-12T02:05:11;20.92;;;15.68;;
29516;SDS011;40993;50.594;8.664;2023-09-12T02:07:41;24.33;;;15.77;;
29516;SDS011;40993;50.594;8.664;2023-09-12T02:10:09;24.02;;;16.88;;
29516;SDS011;40993;50.594;8.664;2023-09-12T02:12:37;23.90;;;15.70;;
29516;SDS011;40993;50.594;8.664;2023-09-12T02:15:06;24.95;;;16.38;;
29516;SDS011;40993;50.594;8.664;2023-09-12T02:17:34;19.83;;;15.52;;
29516;SDS011;40993;50.594;8.664;2023-09-12T02:20:03;23.73;;;15.52;;
29516;SDS011;40993;50.594;8.664;2023-09-12T02:22:32;20.85;;;16.20;;
29516;SDS011;40993;50.594;8.664;2023-09-12T02:24:59;22.20;;;15.77;;
29516;SDS011;40993;50.594;8.664;2023-09-12T02:27:27;25.05;;;15.95;;
29516;SDS011;40993;50.594;8.664;2023-09-12T02:29:54;26.63;;;16.70;;
29516;SDS011;40993;50.594;8.664;2023-09-12T02:32:22;24.85;;;16.48;;
29516;SDS011;40993;50.594;8.664;2023-09-12T02:34:49;24.55;;;16.60;;
29516;SDS011;40993;50.594;8.664;2023-09-12T02:37:20;24.25;;;17.35;;
29516;SDS011;40993;50.594;8.664;2023-09-12T02:39:48;25.27;;;16.90;;
29516;SDS011;40993;50.594;8.664;2023-09-12T02:42:15;26.58;;;17.60;;
29516;SDS011;40993;50.594;8.664;2023-09-12T02:44:43;24.35;;;17.00;;
29516;SDS011;40993;50.594;8.664;2023-09-12T02:47:10;26.80;;;17.90;;
29516;SDS011;40993;50.594;8.664;2023-09-12T02:49:38;27.08;;;17.88;;
29516;SDS011;40993;50.594;8.664;2023-09-12T02:52:06;25.63;;;17.38;;
29516;SDS011;40993;50.594;8.664;2023-09-12T02:54:35;26.58;;;17.23;;
29516;SDS011;40993;50.594;8.664;2023-09-12T02:57:03;24.55;;;17.17;;
29516;SDS011;40993;50.594;8.664;2023-09-12T02:59:31;25.10;;;17.50;;
29516;SDS011;40993;50.594;8.664;2023-09-12T03:01:58;25.92;;;17.27;;
29516;SDS011;40993;50.594;8.664;2023-09-12T03:04:26;24.50;;;18.63;;
29516;SDS011;40993;50.594;8.664;2023-09-12T03:06:54;25.13;;;17.85;;
29516;SDS011;40993;50.594;8.664;2023-09-12T03:09:23;25.90;;;18.05;;
29516;SDS011;40993;50.594;8.664;2023-09-12T03:11:52;27.73;;;18.65;;
29516;SDS011;40993;50.594;8.664;2023-09-12T03:14:19;25.77;;;18.30;;
29516;SDS011;40993;50.594;8.664;2023-09-12T03:16:47;24.52;;;17.52;;
29516;SDS011;40993;50.594;8.664;2023-09-12T03:19:14;26.00;;;17.95;;
29516;SDS011;40993;50.594;8.664;2023-09-12T03:21:42;24.50;;;18.13;;
29516;SDS011;40993;50.594;8.664;2023-09-12T03:24:09;27.27;;;18.25;;
29516;SDS011;40993;50.594;8.664;2023-09-12T03:26:37;30.33;;;18.83;;
29516;SDS011;40993;50.594;8.664;2023-09-12T03:29:06;24.33;;;18.67;;
29516;SDS011;40993;50.594;8.664;2023-09-12T03:31:33;23.70;;;18.02;;
29516;SDS011;40993;50.594;8.664;2023-09-12T03:34:02;23.38;;;17.35;;
29516;SDS011;40993;50.594;8.664;2023-09-12T03:36:30;24.20;;;17.73;;
29516;SDS011;40993;50.594;8.664;2023-09-12T03:38:57;26.88;;;19.00;;
29516;SDS011;40993;50.594;8.664;2023-09-12T03:41:25;27.20;;;18.08;;
29516;SDS011;40993;50.594;8.664;2023-09-12T03:43:54;27.85;;;17.80;;
29516;SDS011;40993;50.594;8.664;2023-09-12T03:46:23;23.95;;;17.77;;
29516;SDS011;40993;50.594;8.664;2023-09-12T03:48:51;24.73;;;17.30;;
29516;SDS011;40993;50.594;8.664;2023-09-12T03:51:19;24.27;;;17.52;;
29516;SDS011;40993;50.594;8.664;2023-09-12T03:53:46;25.33;;;17.23;;
29516;SDS011;40993;50.594;8.664;2023-09-12T03:56:16;28.02;;;18.77;;
29516;SDS011;40993;50.594;8.664;2023-09-12T03:58:46;25.77;;;19.20;;
29516;SDS011;40993;50.594;8.664;2023-09-12T04:01:13;46.05;;;29.50;;
29516;SDS011;40993;50.594;8.664;2023-09-12T04:03:43;32.70;;;23.08;;
29516;SDS011;40993;50.594;8.664;2023-09-12T04:06:11;27.42;;;18.98;;
29516;SDS011;40993;50.594;8.664;2023-09-12T04:08:38;27.70;;;19.13;;
29516;SDS011;40993;50.594;8.664;2023-09-12T04:11:07;32.35;;;21.00;;
29516;SDS011;40993;50.594;8.664;2023-09-12T04:13:34;32.17;;;20.30;;
29516;SDS011;40993;50.594;8.664;2023-09-12T04:16:02;26.38;;;19.20;;
29516;SDS011;40993;50.594;8.664;2023-09-12T04:18:30;28.23;;;18.80;;
29516;SDS011;40993;50.594;8.664;2023-09-12T04:20:59;26.83;;;20.23;;
29516;SDS011;40993;50.594;8.664;2023-09-12T04:23:26;32.00;;;20.23;;
29516;SDS011;40993;50.594;8.664;2023-09-12T04:25:53;27.60;;;19.50;;
29516;SDS011;40993;50.594;8.664;2023-09-12T04:28:21;27.40;;;18.80;;
29516;SDS011;40993;50.594;8.664;2023-09-12T04:30:48;39.35;;;19.67;;
29516;SDS011;40993;50.594;8.664;2023-09-12T04:33:16;28.48;;;18.65;;
29516;SDS011;40993;50.594;8.664;2023-09-12T04:35:44;30.40;;;18.40;;
29516;SDS011;40993;50.594;8.664;2023-09-12T04:38:13;25.33;;;17.80;;
29516;SDS011;40993;50.594;8.664;2023-09-12T04:40:42;29.20;;;18.85;;
29516;SDS011;40993;50.594;8.664;2023-09-12T04:43:09;26.63;;;18.50;;
29516;SDS011;40993;50.594;8.664;2023-09-12T04:45:36;25.98;;;17.63;;
29516;SDS011;40993;50.594;8.664;2023-09-12T04:48:04;25.67;;;18.52;;
29516;SDS011;40993;50.594;8.664;2023-09-12T04:50:33;30.02;;;20.08;;
29516;SDS011;40993;50.594;8.664;2023-09-12T04:53:00;30.70;;;20.50;;
29516;SDS011;40993;50.594;8.664;2023-09-12T04:55:29;29.98;;;22.13;;
29516;SDS011;40993;50.594;8.664;2023-09-12T04:57:57;30.27;;;22.25;;
29516;SDS011;40993;50.594;8.664;2023-09-12T05:00:24;36.30;;;21.55;;
29516;SDS011;40993;50.594;8.664;2023-09-12T05:02:52;35.67;;;21.83;;
29516;SDS011;40993;50.594;8.664;2023-09-12T05:05:19;33.63;;;22.60;;
29516;SDS011;40993;50.594;8.664;2023-09-12T05:07:47;42.47;;;22.48;;
29516;SDS011;40993;50.594;8.664;2023-09-12T05:10:14;30.48;;;21.20;;
29516;SDS011;40993;50.594;8.664;2023-09-12T05:12:43;31.85;;;22.23;;
29516;SDS011;40993;50.594;8.664;2023-09-12T05:15:10;36.60;;;22.35;;
29516;SDS011;40993;50.594;8.664;2023-09-12T05:17:38;31.63;;;20.92;;
29516;SDS011;40993;50.594;8.664;2023-09-12T05:20:06;45.17;;;22.55;;
29516;SDS011;40993;50.594;8.664;2023-09-12T05:22:34;28.40;;;21.33;;
29516;SDS011;40993;50.594;8.664;2023-09-12T05:25:02;30.60;;;20.38;;
29516;SDS011;40993;50.594;8.664;2023-09-12T05:27:30;28.63;;;20.63;;
29516;SDS011;40993;50.594;8.664;2023-09-12T05:29:58;34.30;;;22.67;;
29516;SDS011;40993;50.594;8.664;2023-09-12T05:32:27;31.67;;;21.85;;
29516;SDS011;40993;50.594;8.664;2023-09-12T05:34:55;32.88;;;21.80;;
29516;SDS011;40993;50.594;8.664;2023-09-12T05:37:41;27.83;;;21.33;;
29516;SDS011;40993;50.594;8.664;2023-09-12T05:40:09;30.77;;;21.05;;
29516;SDS011;40993;50.594;8.664;2023-09-12T05:42:37;31.92;;;21.40;;
29516;SDS011;40993;50.594;8.664;2023-09-12T05:45:07;27.92;;;20.65;;
29516;SDS011;40993;50.594;8.664;2023-09-12T05:47:35;28.85;;;19.63;;
29516;SDS011;40993;50.594;8.664;2023-09-12T05:50:03;26.38;;;20.42;;
29516;SDS011;40993;50.594;8.664;2023-09-12T05:52:32;31.73;;;20.50;;
29516;SDS011;40993;50.594;8.664;2023-09-12T05:55:00;31.27;;;19.42;;
29516;SDS011;40993;50.594;8.664;2023-09-12T05:57:28;29.48;;;20.83;;
29516;SDS011;40993;50.594;8.664;2023-09-12T05:59:58;30.35;;;20.33;;
29516;SDS011;40993;50.594;8.664;2023-09-12T06:02:38;28.73;;;19.00;;
29516;SDS011;40993;50.594;8.664;2023-09-12T06:05:06;31.92;;;19.45;;
29516;SDS011;40993;50.594;8.664;2023-09-12T06:07:34;33.15;;;20.73;;
29516;SDS011;40993;50.594;8.664;2023-09-12T06:10:04;32.72;;;19.48;;
29516;SDS011;40993;50.594;8.664;2023-09-12T06:12:32;26.45;;;19.17;;
29516;SDS011;40993;50.594;8.664;2023-09-12T06:15:02;30.73;;;19.92;;
29516;SDS011;40993;50.594;8.664;2023-09-12T06:17:30;34.13;;;20.20;;
29516;SDS011;40993;50.594;8.664;2023-09-12T06:19:59;28.88;;;19.33;;
29516;SDS011;40993;50.594;8.664;2023-09-12T06:22:26;31.17;;;19.60;;
29516;SDS011;40993;50.594;8.664;2023-09-12T06:24:56;31.42;;;19.52;;
29516;SDS011;40993;50.594;8.664;2023-09-12T06:27:24;32.40;;;19.20;;
29516;SDS011;40993;50.594;8.664;2023-09-12T06:29:51;24.98;;;17.48;;
29516;SDS011;40993;50.594;8.664;2023-09-12T06:32:19;31.80;;;18.65;;
29516;SDS011;40993;50.594;8.664;2023-09-12T06:34:46;33.63;;;18.67;;
29516;SDS011;40993;50.594;8.664;2023-09-12T06:37:15;35.10;;;18.33;;
29516;SDS011;40993;50.594;8.664;2023-09-12T06:39:43;33.00;;;17.02;;
29516;SDS011;40993;50.594;8.664;2023-09-12T06:42:11;27.27;;;15.98;;
29516;SDS011;40993;50.594;8.664;2023-09-12T06:44:38;26.30;;;15.60;;
29516;SDS011;40993;50.594;8.664;2023-09-12T06:47:06;27.80;;;14.98;;
29516;SDS011;40993;50.594;8.664;2023-09-12T06:49:33;24.73;;;14.15;;
29516;SDS011;40993;50.594;8.664;2023-09-12T06:52:02;31.90;;;14.43;;
29516;SDS011;40993;50.594;8.664;2023-09-12T06:54:31;29.25;;;14.13;;
29516;SDS011;40993;50.594;8.664;2023-09-12T06:56:59;30.65;;;12.75;;
29516;SDS011;40993;50.594;8.664;2023-09-12T06:59:27;26.23;;;12.43;;
29516;SDS011;40993;50.594;8.664;2023-09-12T07:01:54;21.25;;;11.93;;
29516;SDS011;40993;50.594;8.664;2023-09-12T07:04:21;28.80;;;13.90;;
29516;SDS011;40993;50.594;8.664;2023-09-12T07:06:49;24.80;;;11.30;;
29516;SDS011;40993;50.594;8.664;2023-09-12T07:09:17;25.75;;;11.98;;
29516;SDS011;40993;50.594;8.664;2023-09-12T07:11:47;29.90;;;12.40;;
29516;SDS011;40993;50.594;8.664;2023-09-12T07:14:14;21.83;;;11.13;;
29516;SDS011;40993;50.594;8.664;2023-09-12T07:16:42;25.48;;;11.45;;
29516;SDS011;40993;50.594;8.664;2023-09-12T07:19:10;17.02;;;9.93;;
29516;SDS011;40993;50.594;8.664;2023-09-12T07:21:37;17.30;;;9.95;;
29516;SDS011;40993;50.594;8.664;2023-09-12T07:24:05;18.17;;;10.18;;
29516;SDS011;40993;50.594;8.664;2023-09-12T07:26:33;24.63;;;10.85;;
29516;SDS011;40993;50.594;8.664;2023-09-12T07:29:01;22.40;;;10.15;;
29516;SDS011;40993;50.594;8.664;2023-09-12T07:31:31;23.15;;;9.93;;
29516;SDS011;40993;50.594;8.664;2023-09-12T07:33:59;22.25;;;9.40;;
29516;SDS011;40993;50.594;8.664;2023-09-12T07:36:26;15.77;;;9.23;;
29516;SDS011;40993;50.594;8.664;2023-09-12T07:38:54;17.13;;;8.43;;
29516;SDS011;40993;50.594;8.664;2023-09-12T07:41:21;20.15;;;8.30;;
29516;SDS011;40993;50.594;8.664;2023-09-12T07:43:48;17.25;;;8.52;;
29516;SDS011;40993;50.594;8.664;2023-09-12T07:46:17;22.45;;;8.30;;
29516;SDS011;40993;50.594;8.664;2023-09-12T07:48:45;18.20;;;8.48;;
29516;SDS011;40993;50.594;8.664;2023-09-12T07:51:12;13.73;;;8.70;;
29516;SDS011;40993;50.594;8.664;2023-09-12T07:53:41;21.15;;;8.07;;
29516;SDS011;40993;50.594;8.664;2023-09-12T07:56:09;18.60;;;8.20;;
29516;SDS011;40993;50.594;8.664;2023-09-12T07:58:37;24.00;;;8.25;;
29516;SDS011;40993;50.594;8.664;2023-09-12T08:01:05;18.92;;;8.38;;
29516;SDS011;40993;50.594;8.664;2023-09-12T08:03:35;21.48;;;7.88;;
29516;SDS011;40993;50.594;8.664;2023-09-12T08:06:04;18.08;;;8.50;;
29516;SDS011;40993;50.594;8.664;2023-09-12T08:08:33;21.08;;;8.45;;
29516;SDS011;40993;50.594;8.664;2023-09-12T08:11:01;20.38;;;8.15;;
29516;SDS011;40993;50.594;8.664;2023-09-12T08:13:29;20.67;;;7.85;;
29516;SDS011;40993;50.594;8.664;2023-09-12T08:15:57;19.05;;;8.82;;
29516;SDS011;40993;50.594;8.664;2023-09-12T08:18:26;21.38;;;7.38;;
29516;SDS011;40993;50.594;8.664;2023-09-12T08:20:56;23.27;;;8.27;;
29516;SDS011;40993;50.594;8.664;2023-09-12T08:23:23;18.65;;;6.78;;
29516;SDS011;40993;50.594;8.664;2023-09-12T08:25:51;19.52;;;7.40;;
29516;SDS011;40993;50.594;8.664;2023-09-12T08:28:18;19.95;;;7.63;;
29516;SDS011;40993;50.594;8.664;2023-09-12T08:30:46;22.73;;;7.80;;
29516;SDS011;40993;50.594;8.664;2023-09-12T08:33:13;22.77;;;7.88;;
29516;SDS011;40993;50.594;8.664;2023-09-12T08:35:41;21.20;;;7.22;;
29516;SDS011;40993;50.594;8.664;2023-09-12T08:38:10;19.15;;;6.82;;
29516;SDS011;40993;50.594;8.664;2023-09-12T08:40:38;18.15;;;6.85;;
29516;SDS011;40993;50.594;8.664;2023-09-12T08:43:06;23.45;;;7.57;;
29516;SDS011;40993;50.594;8.664;2023-09-12T08:45:34;15.32;;;6.70;;
29516;SDS011;40993;50.594;8.664;2023-09-12T08:48:03;18.13;;;6.55;;
29516;SDS011;40993;50.594;8.664;2023-09-12T08:50:31;20.83;;;7.00;;
29516;SDS011;40993;50.594;8.664;2023-09-12T08:53:00;19.40;;;7.15;;
29516;SDS011;40993;50.594;8.664;2023-09-12T08:55:35;15.25;;;6.28;;
29516;SDS011;40993;50.594;8.664;2023-09-12T08:58:03;17.02;;;6.32;;
29516;SDS011;40993;50.594;8.664;2023-09-12T09:00:31;17.33;;;6.55;;
29516;SDS011;40993;50.594;8.664;2023-09-12T09:02:59;25.00;;;6.68;;
29516;SDS011;40993;50.594;8.664;2023-09-12T09:05:27;23.17;;;7.38;;
29516;SDS011;40993;50.594;8.664;2023-09-12T09:07:56;19.25;;;6.90;;
29516;SDS011;40993;50.594;8.664;2023-09-12T09:10:24;19.67;;;6.70;;
29516;SDS011;40993;50.594;8.664;2023-09-12T09:13:14;21.15;;;7.00;;
29516;SDS011;40993;50.594;8.664;2023-09-12T09:15:41;17.70;;;6.75;;
29516;SDS011;40993;50.594;8.664;2023-09-12T09:18:09;15.80;;;6.82;;
29516;SDS011;40993;50.594;8.664;2023-09-12T09:20:39;16.30;;;6.90;;
29516;SDS011;40993;50.594;8.664;2023-09-12T09:23:08;18.35;;;6.60;;
29516;SDS011;40993;50.594;8.664;2023-09-12T09:25:39;17.67;;;7.05;;
29516;SDS011;40993;50.594;8.664;2023-09-12T09:28:17;25.25;;;7.25;;
29516;SDS011;40993;50.594;8.664;2023-09-12T09:30:45;17.25;;;6.70;;
29516;SDS011;40993;50.594;8.664;2023-09-12T09:33:14;17.42;;;6.97;;
29516;SDS011;40993;50.594;8.664;2023-09-12T09:35:42;24.20;;;7.15;;
29516;SDS011;40993;50.594;8.664;2023-09-12T09:38:09;17.42;;;7.35;;
29516;SDS011;40993;50.594;8.664;2023-09-12T09:43:10;20.40;;;6.80;;
29516;SDS011;40993;50.594;8.664;2023-09-12T09:45:44;22.08;;;7.10;;
29516;SDS011;40993;50.594;8.664;2023-09-12T09:48:17;18.60;;;6.60;;
29516;SDS011;40993;50.594;8.664;2023-09-12T09:53:12;19.70;;;6.70;;
29516;SDS011;40993;50.594;8.664;2023-09-12T09:55:40;17.98;;;6.32;;
29516;SDS011;40993;50.594;8.664;2023-09-12T09:58:08;22.17;;;6.68;;
29516;SDS011;40993;50.594;8.664;2023-09-12T10:00:37;19.58;;;6.03;;
29516;SDS011;40993;50.594;8.664;2023-09-12T10:03:05;23.38;;;7.28;;
29516;SDS011;40993;50.594;8.664;2023-09-12T10:05:33;21.42;;;6.53;;
29516;SDS011;40993;50.594;8.664;2023-09-12T10:08:06;22.67;;;6.40;;
29516;SDS011;40993;50.594;8.664;2023-09-12T10:10:36;24.80;;;7.13;;
29516;SDS011;40993;50.594;8.664;2023-09-12T10:13:05;19.23;;;6.93;;
29516;SDS011;40993;50.594;8.664;2023-09-12T10:15:33;25.33;;;6.60;;
29516;SDS011;40993;50.594;8.664;2023-09-12T10:18:02;25.27;;;7.30;;
29516;SDS011;40993;50.594;8.664;2023-09-12T10:20:38;23.05;;;6.60;;
29516;SDS011;40993;50.594;8.664;2023-09-12T10:23:11;27.13;;;6.68;;
29516;SDS011;40993;50.594;8.664;2023-09-12T10:25:41;24.15;;;7.32;;
29516;SDS011;40993;50.594;8.664;2023-09-12T10:28:12;23.25;;;6.95;;
29516;SDS011;40993;50.594;8.664;2023-09-12T10:30:40;21.77;;;6.88;;
29516;SDS011;40993;50.594;8.664;2023-09-12T10:33:10;27.02;;;7.43;;
29516;SDS011;40993;50.594;8.664;2023-09-12T10:35:38;22.85;;;7.03;;
29516;SDS011;40993;50.594;8.664;2023-09-12T10:38:05;22.02;;;7.40;;
29516;SDS011;40993;50.594;8.664;2023-09-12T10:40:35;27.85;;;7.65;;
29516;SDS011;40993;50.594;8.664;2023-09-12T10:43:09;27.85;;;7.95;;
29516;SDS011;40993;50.594;8.664;2023-09-12T10:45:38;40.60;;;9.45;;
29516;SDS011;40993;50.594;8.664;2023-09-12T10:48:06;30.80;;;7.85;;
29516;SDS011;40993;50.594;8.664;2023-09-12T10:50:35;27.92;;;7.63;;
29516;SDS011;40993;50.594;8.664;2023-09-12T10:53:10;20.27;;;6.63;;
29516;SDS011;40993;50.594;8.664;2023-09-12T10:55:38;29.55;;;8.15;;
29516;SDS011;40993;50.594;8.664;2023-09-12T10:58:06;22.15;;;7.55;;
29516;SDS011;40993;50.594;8.664;2023-09-12T11:00:34;24.92;;;7.82;;
29516;SDS011;40993;50.594;8.664;2023-09-12T11:06:06;29.55;;;7.68;;
29516;SDS011;40993;50.594;8.664;2023-09-12T11:11:43;22.67;;;7.20;;
29516;SDS011;40993;50.594;8.664;2023-09-12T11:14:12;21.40;;;7.80;;
29516;SDS011;40993;50.594;8.664;2023-09-12T11:16:40;23.00;;;7.72;;
29516;SDS011;40993;50.594;8.664;2023-09-12T11:19:14;20.58;;;7.78;;
29516;SDS011;40993;50.594;8.664;2023-09-12T11:21:44;21.23;;;7.78;;
29516;SDS011;40993;50.594;8.664;2023-09-12T11:24:12;22.83;;;7.28;;
29516;SDS011;40993;50.594;8.664;2023-09-12T11:26:52;19.00;;;7.60;;
29516;SDS011;40993;50.594;8.664;2023-09-12T11:29:21;28.77;;;7.45;;
29516;SDS011;40993;50.594;8.664;2023-09-12T11:31:53;23.50;;;7.30;;
29516;SDS011;40993;50.594;8.664;2023-09-12T11:34:27;21.27;;;7.93;;
29516;SDS011;40993;50.594;8.664;2023-09-12T11:36:56;22.27;;;6.97;;
29516;SDS011;40993;50.594;8.664;2023-09-12T11:39:27;26.58;;;7.93;;
29516;SDS011;40993;50.594;8.664;2023-09-12T11:41:56;18.67;;;7.50;;
29516;SDS011;40993;50.594;8.664;2023-09-12T11:44:24;22.73;;;6.80;;
29516;SDS011;40993;50.594;8.664;2023-09-12T11:46:53;26.75;;;7.32;;
29516;SDS011;40993;50.594;8.664;2023-09-12T11:49:21;25.55;;;6.85;;
29516;SDS011;40993;50.594;8.664;2023-09-12T11:51:49;34.60;;;7.45;;
29516;SDS011;40993;50.594;8.664;2023-09-12T11:54:19;16.25;;;7.03;;
29516;SDS011;40993;50.594;8.664;2023-09-12T11:56:48;19.60;;;6.72;;
29516;SDS011;40993;50.594;8.664;2023-09-12T11:59:22;23.98;;;7.63;;
29516;SDS011;40993;50.594;8.664;2023-09-12T12:01:50;22.17;;;7.60;;
29516;SDS011;40993;50.594;8.664;2023-09-12T12:04:18;23.17;;;7.53;;
29516;SDS011;40993;50.594;8.664;2023-09-12T12:06:47;22.92;;;7.18;;
29516;SDS011;40993;50.594;8.664;2023-09-12T12:09:15;21.35;;;7.38;;
29516;SDS011;40993;50.594;8.664;2023-09-12T12:11:47;22.02;;;7.10;;
29516;SDS011;40993;50.594;8.664;2023-09-12T12:14:15;22.65;;;6.50;;
29516;SDS011;40993;50.594;8.664;2023-09-12T12:16:43;22.75;;;7.22;;
29516;SDS011;40993;50.594;8.664;2023-09-12T12:19:12;20.98;;;6.88;;
29516;SDS011;40993;50.594;8.664;2023-09-12T12:21:40;26.98;;;7.00;;
29516;SDS011;40993;50.594;8.664;2023-09-12T12:24:10;26.70;;;6.65;;
29516;SDS011;40993;50.594;8.664;2023-09-12T12:26:40;23.85;;;6.07;;
29516;SDS011;40993;50.594;8.664;2023-09-12T12:29:09;19.35;;;6.22;;
29516;SDS011;40993;50.594;8.664;2023-09-12T12:31:37;19.25;;;6.00;;
29516;SDS011;40993;50.594;8.664;2023-09-12T12:34:05;19.40;;;6.35;;
29516;SDS011;40993;50.594;8.664;2023-09-12T12:36:53;24.30;;;6.63;;
29516;SDS011;40993;50.594;8.664;2023-09-12T12:39:24;22.05;;;6.18;;
29516;SDS011;40993;50.594;8.664;2023-09-12T12:41:52;28.08;;;6.18;;
29516;SDS011;40993;50.594;8.664;2023-09-12T12:44:21;25.80;;;6.68;;
29516;SDS011;40993;50.594;8.664;2023-09-12T12:46:49;18.95;;;6.53;;
29516;SDS011;40993;50.594;8.664;2023-09-12T12:49:17;25.20;;;6.72;;
29516;SDS011;40993;50.594;8.664;2023-09-12T12:51:45;19.10;;;7.10;;
29516;SDS011;40993;50.594;8.664;2023-09-12T12:54:13;23.95;;;7.15;;
29516;SDS011;40993;50.594;8.664;2023-09-12T12:56:42;26.77;;;7.90;;
29516;SDS011;40993;50.594;8.664;2023-09-12T12:59:10;25.23;;;7.75;;
29516;SDS011;40993;50.594;8.664;2023-09-12T13:01:39;23.90;;;7.28;;
29516;SDS011;40993;50.594;8.664;2023-09-12T13:04:06;24.42;;;7.75;;
29516;SDS011;40993;50.594;8.664;2023-09-12T13:06:34;24.48;;;8.05;;
29516;SDS011;40993;50.594;8.664;2023-09-12T13:09:03;23.35;;;7.40;;
29516;SDS011;40993;50.594;8.664;2023-09-12T13:11:32;25.42;;;7.93;;
29516;SDS011;40993;50.594;8.664;2023-09-12T13:14:00;28.65;;;8.43;;
29516;SDS011;40993;50.594;8.664;2023-09-12T13:16:35;28.15;;;7.82;;
29516;SDS011;40993;50.594;8.664;2023-09-12T13:19:04;18.52;;;7.38;;
29516;SDS011;40993;50.594;8.664;2023-09-12T13:21:31;17.38;;;7.10;;
29516;SDS011;40993;50.594;8.664;2023-09-12T13:23:59;19.30;;;7.32;;
29516;SDS011;40993;50.594;8.664;2023-09-12T13:26:28;30.05;;;8.15;;
29516;SDS011;40993;50.594;8.664;2023-09-12T13:28:56;25.25;;;7.65;;
29516;SDS011;40993;50.594;8.664;2023-09-12T13:31:23;16.35;;;6.75;;
29516;SDS011;40993;50.594;8.664;2023-09-12T13:33:51;19.23;;;7.32;;
29516;SDS011;40993;50.594;8.664;2023-09-12T13:36:20;19.48;;;7.80;;
29516;SDS011;40993;50.594;8.664;2023-09-12T13:38:50;25.52;;;7.82;;
29516;SDS011;40993;50.594;8.664;2023-09-12T13:41:17;25.30;;;7.15;;
29516;SDS011;40993;50.594;8.664;2023-09-12T13:43:45;22.15;;;8.50;;
29516;SDS011;40993;50.594;8.664;2023-09-12T13:46:13;23.33;;;8.10;;
29516;SDS011;40993;50.594;8.664;2023-09-12T13:48:42;26.48;;;7.35;;
29516;SDS011;40993;50.594;8.664;2023-09-12T13:51:12;18.00;;;7.45;;
29516;SDS011;40993;50.594;8.664;2023-09-12T13:53:41;32.45;;;8.18;;
29516;SDS011;40993;50.594;8.664;2023-09-12T13:56:09;23.60;;;8.00;;
29516;SDS011;40993;50.594;8.664;2023-09-12T13:58:37;24.23;;;8.32;;
29516;SDS011;40993;50.594;8.664;2023-09-12T14:01:12;26.33;;;8.00;;
29516;SDS011;40993;50.594;8.664;2023-09-12T14:03:50;27.92;;;7.43;;
29516;SDS011;40993;50.594;8.664;2023-09-12T14:06:20;24.15;;;7.72;;
29516;SDS011;40993;50.594;8.664;2023-09-12T14:08:49;22.73;;;7.35;;
29516;SDS011;40993;50.594;8.664;2023-09-12T14:11:19;24.17;;;7.60;;
29516;SDS011;40993;50.594;8.664;2023-09-12T14:13:59;21.17;;;7.82;;
29516;SDS011;40993;50.594;8.664;2023-09-12T14:16:41;23.13;;;8.23;;
29516;SDS011;40993;50.594;8.664;2023-09-12T14:19:13;26.73;;;7.88;;
29516;SDS011;40993;50.594;8.664;2023-09-12T14:21:42;25.15;;;8.45;;
29516;SDS011;40993;50.594;8.664;2023-09-12T14:24:13;30.30;;;8.70;;
29516;SDS011;40993;50.594;8.664;2023-09-12T14:26:41;26.60;;;7.35;;
29516;SDS011;40993;50.594;8.664;2023-09-12T14:29:08;27.85;;;7.47;;
29516;SDS011;40993;50.594;8.664;2023-09-12T14:31:37;23.60;;;8.10;;
29516;SDS011;40993;50.594;8.664;2023-09-12T14:34:05;22.17;;;8.40;;
29516;SDS011;40993;50.594;8.664;2023-09-12T14:36:34;26.55;;;6.72;;
29516;SDS011;40993;50.594;8.664;2023-09-12T14:39:02;22.67;;;7.65;;
29516;SDS011;40993;50.594;8.664;2023-09-12T14:41:31;26.42;;;7.80;;
29516;SDS011;40993;50.594;8.664;2023-09-12T14:43:58;20.83;;;7.20;;
29516;SDS011;40993;50.594;8.664;2023-09-12T14:46:26;21.48;;;7.28;;
29516;SDS011;40993;50.594;8.664;2023-09-12T14:48:54;17.10;;;7.38;;